sensor_id;sensor_type;location;lat;lon;timestamp;temperature;humidity
46890;DHT22;32625;51.080;16.970;2023-11-19T00:00:32;3.30;99.90
46890;DHT22;32625;51.080;16.970;2023-11-19T00:02:59;3.30;99.90
46890;DHT22;32625;51.080;16.970;2023-11-19T00:05:26;3.40;99.90
46890;DHT22;32625;51.080;16.970;2023-11-19T00:07:54;3.40;99.90
46890;DHT22;32625;51.080;16.970;2023-11-19T00:10:21;3.40;99.90
46890;DHT22;32625;51.080;16.970;2023-11-19T00:12:49;3.40;99.90
46890;DHT22;32625;51.080;16.970;2023-11-19T00:15:17;3.30;99.90
46890;DHT22;32625;51.080;16.970;2023-11-19T00:17:46;3.30;99.90
46890;DHT22;32625;51.080;16.970;2023-11-19T00:20:16;3.40;99.90
46890;DHT22;32625;51.080;16.970;2023-11-19T00:22:44;3.30;99.90
46890;DHT22;32625;51.080;16.970;2023-11-19T00:25:20;3.40;99.90
46890;DHT22;32625;51.080;16.970;2023-11-19T00:27:49;3.40;99.90
46890;DHT22;32625;51.080;16.970;2023-11-19T00:30:17;3.40;99.90
46890;DHT22;32625;51.080;16.970;2023-11-19T00:32:44;3.30;99.90
46890;DHT22;32625;51.080;16.970;2023-11-19T00:35:12;3.30;99.90
46890;DHT22;32625;51.080;16.970;2023-11-19T00:37:42;3.30;99.90
46890;DHT22;32625;51.080;16.970;2023-11-19T00:40:10;3.30;99.90
46890;DHT22;32625;51.080;16.970;2023-11-19T00:42:38;3.20;99.90
46890;DHT22;32625;51.080;16.970;2023-11-19T00:45:06;3.30;99.90
46890;DHT22;32625;51.080;16.970;2023-11-19T00:47:38;3.30;99.90
46890;DHT22;32625;51.080;16.970;2023-11-19T00:50:06;3.30;99.90
46890;DHT22;32625;51.080;16.970;2023-11-19T00:52:36;3.30;99.90
46890;DHT22;32625;51.080;16.970;2023-11-19T00:55:04;3.20;99.90
46890;DHT22;32625;51.080;16.970;2023-11-19T00:57:31;3.00;99.90
46890;DHT22;32625;51.080;16.970;2023-11-19T01:00:04;3.10;99.90
46890;DHT22;32625;51.080;16.970;2023-11-19T01:02:36;3.10;99.90
46890;DHT22;32625;51.080;16.970;2023-11-19T01:05:03;3.00;99.90
46890;DHT22;32625;51.080;16.970;2023-11-19T01:07:30;3.00;99.90
46890;DHT22;32625;51.080;16.970;2023-11-19T01:09:57;2.90;99.90
46890;DHT22;32625;51.080;16.970;2023-11-19T01:12:24;3.00;99.90
46890;DHT22;32625;51.080;16.970;2023-11-19T01:14:52;3.00;99.90
46890;DHT22;32625;51.080;16.970;2023-11-19T01:17:19;3.00;99.90
46890;DHT22;32625;51.080;16.970;2023-11-19T01:19:46;3.00;99.90
46890;DHT22;32625;51.080;16.970;2023-11-19T01:22:13;2.70;99.90
46890;DHT22;32625;51.080;16.970;2023-11-19T01:24:40;2.70;99.90
46890;DHT22;32625;51.080;16.970;2023-11-19T01:27:07;2.80;99.90
46890;DHT22;32625;51.080;16.970;2023-11-19T01:29:34;2.90;99.90
46890;DHT22;32625;51.080;16.970;2023-11-19T01:32:01;2.80;99.90
46890;DHT22;32625;51.080;16.970;2023-11-19T01:34:28;2.90;99.90
46890;DHT22;32625;51.080;16.970;2023-11-19T01:36:55;3.00;99.90
46890;DHT22;32625;51.080;16.970;2023-11-19T01:39:22;3.00;99.90
46890;DHT22;32625;51.080;16.970;2023-11-19T01:41:49;2.90;99.90
46890;DHT22;32625;51.080;16.970;2023-11-19T01:44:16;2.80;99.90
46890;DHT22;32625;51.080;16.970;2023-11-19T01:46:44;2.80;99.90
46890;DHT22;32625;51.080;16.970;2023-11-19T01:49:15;2.90;99.90
46890;DHT22;32625;51.080;16.970;2023-11-19T01:51:42;2.70;99.90
46890;DHT22;32625;51.080;16.970;2023-11-19T01:54:10;2.80;99.90
46890;DHT22;32625;51.080;16.970;2023-11-19T01:56:38;2.70;99.90
46890;DHT22;32625;51.080;16.970;2023-11-19T01:59:09;2.70;99.90
46890;DHT22;32625;51.080;16.970;2023-11-19T02:01:37;2.80;99.90
46890;DHT22;32625;51.080;16.970;2023-11-19T02:04:08;2.80;99.90
46890;DHT22;32625;51.080;16.970;2023-11-19T02:06:40;2.80;99.90
46890;DHT22;32625;51.080;16.970;2023-11-19T02:09:09;2.80;99.90
46890;DHT22;32625;51.080;16.970;2023-11-19T02:11:37;2.80;99.90
46890;DHT22;32625;51.080;16.970;2023-11-19T02:14:06;2.70;99.90
46890;DHT22;32625;51.080;16.970;2023-11-19T02:16:34;2.60;99.90
46890;DHT22;32625;51.080;16.970;2023-11-19T02:19:01;2.70;99.90
46890;DHT22;32625;51.080;16.970;2023-11-19T02:21:29;2.80;99.90
46890;DHT22;32625;51.080;16.970;2023-11-19T02:23:56;2.80;99.90
46890;DHT22;32625;51.080;16.970;2023-11-19T02:29:23;2.80;99.90
46890;DHT22;32625;51.080;16.970;2023-11-19T02:31:50;2.80;99.90
46890;DHT22;32625;51.080;16.970;2023-11-19T02:34:17;2.80;99.90
46890;DHT22;32625;51.080;16.970;2023-11-19T02:36:44;2.90;99.90
46890;DHT22;32625;51.080;16.970;2023-11-19T02:39:11;2.90;99.90
46890;DHT22;32625;51.080;16.970;2023-11-19T02:41:39;2.80;99.90
46890;DHT22;32625;51.080;16.970;2023-11-19T02:44:07;2.80;99.90
46890;DHT22;32625;51.080;16.970;2023-11-19T02:46:34;2.80;99.90
46890;DHT22;32625;51.080;16.970;2023-11-19T02:49:01;2.80;99.90
46890;DHT22;32625;51.080;16.970;2023-11-19T02:51:28;2.80;99.90
46890;DHT22;32625;51.080;16.970;2023-11-19T02:53:57;2.70;99.90
46890;DHT22;32625;51.080;16.970;2023-11-19T02:56:24;2.70;99.90
46890;DHT22;32625;51.080;16.970;2023-11-19T02:58:53;2.80;99.90
46890;DHT22;32625;51.080;16.970;2023-11-19T03:01:24;2.80;99.90
46890;DHT22;32625;51.080;16.970;2023-11-19T03:03:59;2.70;99.90
46890;DHT22;32625;51.080;16.970;2023-11-19T03:06:28;2.80;99.90
46890;DHT22;32625;51.080;16.970;2023-11-19T03:08:56;2.80;99.90
46890;DHT22;32625;51.080;16.970;2023-11-19T03:11:23;2.80;99.90
46890;DHT22;32625;51.080;16.970;2023-11-19T03:13:51;2.80;99.90
46890;DHT22;32625;51.080;16.970;2023-11-19T03:16:18;2.80;99.90
46890;DHT22;32625;51.080;16.970;2023-11-19T03:18:45;2.70;99.90
46890;DHT22;32625;51.080;16.970;2023-11-19T03:21:12;2.80;99.90
46890;DHT22;32625;51.080;16.970;2023-11-19T03:23:40;2.80;99.90
46890;DHT22;32625;51.080;16.970;2023-11-19T03:26:10;2.70;99.90
46890;DHT22;32625;51.080;16.970;2023-11-19T03:28:38;2.60;99.90
46890;DHT22;32625;51.080;16.970;2023-11-19T03:31:05;2.80;99.90
46890;DHT22;32625;51.080;16.970;2023-11-19T03:33:35;2.60;99.90
46890;DHT22;32625;51.080;16.970;2023-11-19T03:36:05;2.70;99.90
46890;DHT22;32625;51.080;16.970;2023-11-19T03:38:32;2.70;99.90
46890;DHT22;32625;51.080;16.970;2023-11-19T03:40:59;2.60;99.90
46890;DHT22;32625;51.080;16.970;2023-11-19T03:43:26;2.60;99.90
46890;DHT22;32625;51.080;16.970;2023-11-19T03:45:54;2.70;99.90
46890;DHT22;32625;51.080;16.970;2023-11-19T03:48:20;2.60;99.90
46890;DHT22;32625;51.080;16.970;2023-11-19T03:50:48;2.50;99.90
46890;DHT22;32625;51.080;16.970;2023-11-19T03:53:15;2.40;99.90
46890;DHT22;32625;51.080;16.970;2023-11-19T03:55:42;2.40;99.90
46890;DHT22;32625;51.080;16.970;2023-11-19T03:58:09;2.50;99.90
46890;DHT22;32625;51.080;16.970;2023-11-19T04:00:36;2.50;99.90
46890;DHT22;32625;51.080;16.970;2023-11-19T04:03:03;2.50;99.90
46890;DHT22;32625;51.080;16.970;2023-11-19T04:05:31;2.60;99.90
46890;DHT22;32625;51.080;16.970;2023-11-19T04:07:58;2.60;99.90
46890;DHT22;32625;51.080;16.970;2023-11-19T04:10:25;2.50;99.90
46890;DHT22;32625;51.080;16.970;2023-11-19T04:12:56;2.50;99.90
46890;DHT22;32625;51.080;16.970;2023-11-19T04:15:23;2.50;99.90
46890;DHT22;32625;51.080;16.970;2023-11-19T04:17:50;2.50;99.90
46890;DHT22;32625;51.080;16.970;2023-11-19T04:20:18;2.60;99.90
46890;DHT22;32625;51.080;16.970;2023-11-19T04:22:46;2.60;99.90
46890;DHT22;32625;51.080;16.970;2023-11-19T04:25:13;2.60;99.90
46890;DHT22;32625;51.080;16.970;2023-11-19T04:27:42;2.50;99.90
46890;DHT22;32625;51.080;16.970;2023-11-19T04:30:09;2.50;99.90
46890;DHT22;32625;51.080;16.970;2023-11-19T04:32:38;2.50;99.90
46890;DHT22;32625;51.080;16.970;2023-11-19T04:35:05;2.50;99.90
46890;DHT22;32625;51.080;16.970;2023-11-19T04:37:33;2.60;99.90
46890;DHT22;32625;51.080;16.970;2023-11-19T04:40:02;2.50;99.90
46890;DHT22;32625;51.080;16.970;2023-11-19T04:42:30;2.50;99.90
46890;DHT22;32625;51.080;16.970;2023-11-19T04:44:58;2.60;99.90
46890;DHT22;32625;51.080;16.970;2023-11-19T04:47:25;2.50;99.90
46890;DHT22;32625;51.080;16.970;2023-11-19T04:49:53;2.60;99.90
46890;DHT22;32625;51.080;16.970;2023-11-19T04:52:20;2.50;99.90
46890;DHT22;32625;51.080;16.970;2023-11-19T04:54:47;2.50;99.90
46890;DHT22;32625;51.080;16.970;2023-11-19T04:57:15;2.50;99.90
46890;DHT22;32625;51.080;16.970;2023-11-19T04:59:42;2.60;99.90
46890;DHT22;32625;51.080;16.970;2023-11-19T05:02:09;2.50;99.90
46890;DHT22;32625;51.080;16.970;2023-11-19T05:04:36;2.60;99.90
46890;DHT22;32625;51.080;16.970;2023-11-19T05:07:05;2.60;99.90
46890;DHT22;32625;51.080;16.970;2023-11-19T05:09:32;2.60;99.90
46890;DHT22;32625;51.080;16.970;2023-11-19T05:11:59;2.70;99.90
46890;DHT22;32625;51.080;16.970;2023-11-19T05:14:26;2.70;99.90
46890;DHT22;32625;51.080;16.970;2023-11-19T05:16:53;2.80;99.90
46890;DHT22;32625;51.080;16.970;2023-11-19T05:19:20;2.70;99.90
46890;DHT22;32625;51.080;16.970;2023-11-19T05:21:47;2.80;99.90
46890;DHT22;32625;51.080;16.970;2023-11-19T05:24:14;2.80;99.90
46890;DHT22;32625;51.080;16.970;2023-11-19T05:26:41;2.80;99.90
46890;DHT22;32625;51.080;16.970;2023-11-19T05:29:08;2.70;99.90
46890;DHT22;32625;51.080;16.970;2023-11-19T05:31:35;2.80;99.90
46890;DHT22;32625;51.080;16.970;2023-11-19T05:34:04;2.80;99.90
46890;DHT22;32625;51.080;16.970;2023-11-19T05:36:31;2.70;99.90
46890;DHT22;32625;51.080;16.970;2023-11-19T05:38:58;2.80;99.90
46890;DHT22;32625;51.080;16.970;2023-11-19T05:41:25;2.80;99.90
46890;DHT22;32625;51.080;16.970;2023-11-19T05:43:52;2.70;99.90
46890;DHT22;32625;51.080;16.970;2023-11-19T05:46:19;2.80;99.90
46890;DHT22;32625;51.080;16.970;2023-11-19T05:48:47;2.80;99.90
46890;DHT22;32625;51.080;16.970;2023-11-19T05:51:15;2.80;99.90
46890;DHT22;32625;51.080;16.970;2023-11-19T05:53:43;2.80;99.90
46890;DHT22;32625;51.080;16.970;2023-11-19T05:56:13;2.80;99.90
46890;DHT22;32625;51.080;16.970;2023-11-19T05:58:40;2.90;99.90
46890;DHT22;32625;51.080;16.970;2023-11-19T06:01:08;2.90;99.90
46890;DHT22;32625;51.080;16.970;2023-11-19T06:03:36;2.90;99.90
46890;DHT22;32625;51.080;16.970;2023-11-19T06:06:04;2.80;99.90
46890;DHT22;32625;51.080;16.970;2023-11-19T06:08:32;2.90;99.90
46890;DHT22;32625;51.080;16.970;2023-11-19T06:10:59;2.90;99.90
46890;DHT22;32625;51.080;16.970;2023-11-19T06:13:28;2.90;99.90
46890;DHT22;32625;51.080;16.970;2023-11-19T06:15:58;2.90;99.90
46890;DHT22;32625;51.080;16.970;2023-11-19T06:18:25;2.90;99.90
46890;DHT22;32625;51.080;16.970;2023-11-19T06:20:52;2.90;99.90
46890;DHT22;32625;51.080;16.970;2023-11-19T06:23:19;3.00;99.90
46890;DHT22;32625;51.080;16.970;2023-11-19T06:25:46;2.90;99.90
46890;DHT22;32625;51.080;16.970;2023-11-19T06:28:13;2.90;99.90
46890;DHT22;32625;51.080;16.970;2023-11-19T06:30:41;2.90;99.90
46890;DHT22;32625;51.080;16.970;2023-11-19T06:33:08;2.90;99.90
46890;DHT22;32625;51.080;16.970;2023-11-19T06:35:35;3.00;99.90
46890;DHT22;32625;51.080;16.970;2023-11-19T06:38:03;3.00;99.90
46890;DHT22;32625;51.080;16.970;2023-11-19T06:40:34;3.10;99.90
46890;DHT22;32625;51.080;16.970;2023-11-19T06:43:02;3.10;99.90
46890;DHT22;32625;51.080;16.970;2023-11-19T06:45:30;3.10;99.90
46890;DHT22;32625;51.080;16.970;2023-11-19T06:47:58;3.10;99.90
46890;DHT22;32625;51.080;16.970;2023-11-19T06:50:27;3.20;99.90
46890;DHT22;32625;51.080;16.970;2023-11-19T06:52:54;3.10;99.90
46890;DHT22;32625;51.080;16.970;2023-11-19T06:55:21;3.20;99.90
46890;DHT22;32625;51.080;16.970;2023-11-19T06:57:48;3.10;99.90
46890;DHT22;32625;51.080;16.970;2023-11-19T07:00:15;3.10;99.90
46890;DHT22;32625;51.080;16.970;2023-11-19T07:02:43;3.10;99.90
46890;DHT22;32625;51.080;16.970;2023-11-19T07:05:11;3.10;99.90
46890;DHT22;32625;51.080;16.970;2023-11-19T07:07:40;3.20;99.90
46890;DHT22;32625;51.080;16.970;2023-11-19T07:10:07;3.30;99.90
46890;DHT22;32625;51.080;16.970;2023-11-19T07:12:36;3.30;99.90
46890;DHT22;32625;51.080;16.970;2023-11-19T07:15:04;3.40;99.90
46890;DHT22;32625;51.080;16.970;2023-11-19T07:17:32;3.40;99.90
46890;DHT22;32625;51.080;16.970;2023-11-19T07:19:59;3.40;99.90
46890;DHT22;32625;51.080;16.970;2023-11-19T07:22:27;3.40;99.90
46890;DHT22;32625;51.080;16.970;2023-11-19T07:24:56;3.40;99.90
46890;DHT22;32625;51.080;16.970;2023-11-19T07:27:26;3.40;99.90
46890;DHT22;32625;51.080;16.970;2023-11-19T07:29:53;3.40;99.90
46890;DHT22;32625;51.080;16.970;2023-11-19T07:32:19;3.40;99.90
46890;DHT22;32625;51.080;16.970;2023-11-19T07:34:47;3.50;99.90
46890;DHT22;32625;51.080;16.970;2023-11-19T07:37:13;3.50;99.90
46890;DHT22;32625;51.080;16.970;2023-11-19T07:39:40;3.60;99.90
46890;DHT22;32625;51.080;16.970;2023-11-19T07:42:08;3.60;99.90
46890;DHT22;32625;51.080;16.970;2023-11-19T07:44:36;3.60;99.90
46890;DHT22;32625;51.080;16.970;2023-11-19T07:47:03;3.60;99.90
46890;DHT22;32625;51.080;16.970;2023-11-19T07:49:31;3.70;99.90
46890;DHT22;32625;51.080;16.970;2023-11-19T07:51:58;3.60;99.90
46890;DHT22;32625;51.080;16.970;2023-11-19T07:54:25;3.60;99.90
46890;DHT22;32625;51.080;16.970;2023-11-19T07:56:52;3.60;99.90
46890;DHT22;32625;51.080;16.970;2023-11-19T07:59:19;3.60;99.90
46890;DHT22;32625;51.080;16.970;2023-11-19T08:01:46;3.60;99.90
46890;DHT22;32625;51.080;16.970;2023-11-19T08:04:13;3.60;99.90
46890;DHT22;32625;51.080;16.970;2023-11-19T08:06:40;3.60;99.90
46890;DHT22;32625;51.080;16.970;2023-11-19T08:09:07;3.50;99.90
46890;DHT22;32625;51.080;16.970;2023-11-19T08:11:44;3.60;99.90
46890;DHT22;32625;51.080;16.970;2023-11-19T08:14:11;3.60;99.90
46890;DHT22;32625;51.080;16.970;2023-11-19T08:16:39;3.60;99.90
46890;DHT22;32625;51.080;16.970;2023-11-19T08:19:06;3.70;99.90
46890;DHT22;32625;51.080;16.970;2023-11-19T08:21:33;3.70;99.90
46890;DHT22;32625;51.080;16.970;2023-11-19T08:24:00;3.60;99.90
46890;DHT22;32625;51.080;16.970;2023-11-19T08:26:27;3.60;99.90
46890;DHT22;32625;51.080;16.970;2023-11-19T08:28:54;3.60;99.90
46890;DHT22;32625;51.080;16.970;2023-11-19T08:31:21;3.50;99.90
46890;DHT22;32625;51.080;16.970;2023-11-19T08:33:49;3.30;99.90
46890;DHT22;32625;51.080;16.970;2023-11-19T08:36:16;3.30;99.90
46890;DHT22;32625;51.080;16.970;2023-11-19T08:38:44;3.30;99.90
46890;DHT22;32625;51.080;16.970;2023-11-19T08:41:13;3.30;99.90
46890;DHT22;32625;51.080;16.970;2023-11-19T08:43:40;3.30;99.90
46890;DHT22;32625;51.080;16.970;2023-11-19T08:46:11;3.40;99.90
46890;DHT22;32625;51.080;16.970;2023-11-19T08:48:39;3.30;99.90
46890;DHT22;32625;51.080;16.970;2023-11-19T08:51:06;3.30;99.90
46890;DHT22;32625;51.080;16.970;2023-11-19T08:53:33;3.30;99.90
46890;DHT22;32625;51.080;16.970;2023-11-19T08:56:01;3.30;99.90
46890;DHT22;32625;51.080;16.970;2023-11-19T08:58:30;3.40;99.90
46890;DHT22;32625;51.080;16.970;2023-11-19T09:00:57;3.30;99.90
46890;DHT22;32625;51.080;16.970;2023-11-19T09:03:25;3.30;99.90
46890;DHT22;32625;51.080;16.970;2023-11-19T09:05:57;3.30;99.90
46890;DHT22;32625;51.080;16.970;2023-11-19T09:08:24;3.30;99.90
46890;DHT22;32625;51.080;16.970;2023-11-19T09:10:51;3.40;99.90
46890;DHT22;32625;51.080;16.970;2023-11-19T09:13:18;3.40;99.90
46890;DHT22;32625;51.080;16.970;2023-11-19T09:15:45;3.50;99.90
46890;DHT22;32625;51.080;16.970;2023-11-19T09:18:12;3.60;99.90
46890;DHT22;32625;51.080;16.970;2023-11-19T09:20:39;3.50;99.90
46890;DHT22;32625;51.080;16.970;2023-11-19T09:23:06;3.60;99.90
46890;DHT22;32625;51.080;16.970;2023-11-19T09:25:34;3.60;99.90
46890;DHT22;32625;51.080;16.970;2023-11-19T09:28:04;3.70;99.90
46890;DHT22;32625;51.080;16.970;2023-11-19T09:30:31;3.60;99.90
46890;DHT22;32625;51.080;16.970;2023-11-19T09:33:01;3.50;99.90
46890;DHT22;32625;51.080;16.970;2023-11-19T09:35:28;3.60;99.90
46890;DHT22;32625;51.080;16.970;2023-11-19T09:37:55;3.70;99.90
46890;DHT22;32625;51.080;16.970;2023-11-19T09:40:22;3.80;99.90
46890;DHT22;32625;51.080;16.970;2023-11-19T09:42:50;3.80;99.90
46890;DHT22;32625;51.080;16.970;2023-11-19T09:45:17;3.90;99.90
46890;DHT22;32625;51.080;16.970;2023-11-19T09:47:47;4.00;99.90
46890;DHT22;32625;51.080;16.970;2023-11-19T09:50:17;4.00;99.90
46890;DHT22;32625;51.080;16.970;2023-11-19T09:52:47;4.00;99.90
46890;DHT22;32625;51.080;16.970;2023-11-19T09:55:14;4.00;99.90
46890;DHT22;32625;51.080;16.970;2023-11-19T09:57:41;4.00;99.90
46890;DHT22;32625;51.080;16.970;2023-11-19T10:00:12;4.00;99.90
46890;DHT22;32625;51.080;16.970;2023-11-19T10:02:43;4.10;99.90
46890;DHT22;32625;51.080;16.970;2023-11-19T10:05:14;4.20;99.90
46890;DHT22;32625;51.080;16.970;2023-11-19T10:07:42;4.20;99.90
46890;DHT22;32625;51.080;16.970;2023-11-19T10:10:10;4.30;99.90
46890;DHT22;32625;51.080;16.970;2023-11-19T10:12:41;4.30;99.90
46890;DHT22;32625;51.080;16.970;2023-11-19T10:15:24;4.30;99.90
46890;DHT22;32625;51.080;16.970;2023-11-19T10:17:57;4.30;99.90
46890;DHT22;32625;51.080;16.970;2023-11-19T10:20:24;4.40;99.90
46890;DHT22;32625;51.080;16.970;2023-11-19T10:22:55;4.40;99.90
46890;DHT22;32625;51.080;16.970;2023-11-19T10:25:25;4.50;99.90
46890;DHT22;32625;51.080;16.970;2023-11-19T10:27:52;4.60;99.90
46890;DHT22;32625;51.080;16.970;2023-11-19T10:30:28;4.60;99.90
46890;DHT22;32625;51.080;16.970;2023-11-19T10:33:14;4.60;99.90
46890;DHT22;32625;51.080;16.970;2023-11-19T10:35:52;4.60;99.90
46890;DHT22;32625;51.080;16.970;2023-11-19T10:38:24;4.70;99.90
46890;DHT22;32625;51.080;16.970;2023-11-19T10:40:52;4.70;99.90
46890;DHT22;32625;51.080;16.970;2023-11-19T10:43:20;4.70;99.90
46890;DHT22;32625;51.080;16.970;2023-11-19T10:45:49;4.80;99.90
46890;DHT22;32625;51.080;16.970;2023-11-19T10:48:16;4.80;99.90
46890;DHT22;32625;51.080;16.970;2023-11-19T10:50:46;4.80;99.90
46890;DHT22;32625;51.080;16.970;2023-11-19T10:53:17;4.80;99.90
46890;DHT22;32625;51.080;16.970;2023-11-19T10:55:47;4.80;99.90
46890;DHT22;32625;51.080;16.970;2023-11-19T10:58:16;4.80;99.90
46890;DHT22;32625;51.080;16.970;2023-11-19T11:00:55;4.90;99.90
46890;DHT22;32625;51.080;16.970;2023-11-19T11:03:25;4.90;99.90
46890;DHT22;32625;51.080;16.970;2023-11-19T11:05:54;4.90;99.90
46890;DHT22;32625;51.080;16.970;2023-11-19T11:08:21;4.90;99.90
46890;DHT22;32625;51.080;16.970;2023-11-19T11:10:53;4.90;99.90
46890;DHT22;32625;51.080;16.970;2023-11-19T11:13:25;4.80;99.90
46890;DHT22;32625;51.080;16.970;2023-11-19T11:15:52;4.80;99.90
46890;DHT22;32625;51.080;16.970;2023-11-19T11:18:21;4.90;99.90
46890;DHT22;32625;51.080;16.970;2023-11-19T11:20:50;4.90;99.90
46890;DHT22;32625;51.080;16.970;2023-11-19T11:29:24;4.80;99.90
46890;DHT22;32625;51.080;16.970;2023-11-19T11:34:44;4.80;99.90
46890;DHT22;32625;51.080;16.970;2023-11-19T11:37:39;4.90;99.90
46890;DHT22;32625;51.080;16.970;2023-11-19T11:40:14;5.00;99.90
46890;DHT22;32625;51.080;16.970;2023-11-19T11:42:42;5.00;99.90
46890;DHT22;32625;51.080;16.970;2023-11-19T11:45:13;5.00;99.90
46890;DHT22;32625;51.080;16.970;2023-11-19T11:50:12;5.10;99.90
46890;DHT22;32625;51.080;16.970;2023-11-19T11:55:36;5.10;99.90
46890;DHT22;32625;51.080;16.970;2023-11-19T11:58:05;5.10;99.90
46890;DHT22;32625;51.080;16.970;2023-11-19T12:00:36;5.20;99.90
46890;DHT22;32625;51.080;16.970;2023-11-19T12:03:07;5.20;99.90
46890;DHT22;32625;51.080;16.970;2023-11-19T12:05:42;5.20;99.90
46890;DHT22;32625;51.080;16.970;2023-11-19T12:08:15;5.20;99.90
46890;DHT22;32625;51.080;16.970;2023-11-19T12:10:56;5.30;99.90
46890;DHT22;32625;51.080;16.970;2023-11-19T12:13:46;5.30;99.90
46890;DHT22;32625;51.080;16.970;2023-11-19T12:16:14;5.40;99.90
46890;DHT22;32625;51.080;16.970;2023-11-19T12:18:41;5.40;99.90
46890;DHT22;32625;51.080;16.970;2023-11-19T12:21:08;5.50;99.90
46890;DHT22;32625;51.080;16.970;2023-11-19T12:23:44;5.60;99.90
46890;DHT22;32625;51.080;16.970;2023-11-19T12:26:32;5.60;99.90
46890;DHT22;32625;51.080;16.970;2023-11-19T12:29:00;5.70;99.90
46890;DHT22;32625;51.080;16.970;2023-11-19T12:31:30;5.70;99.90
46890;DHT22;32625;51.080;16.970;2023-11-19T12:33:57;5.80;99.90
46890;DHT22;32625;51.080;16.970;2023-11-19T12:36:25;5.80;99.90
46890;DHT22;32625;51.080;16.970;2023-11-19T12:38:52;5.80;99.90
46890;DHT22;32625;51.080;16.970;2023-11-19T12:41:20;5.80;99.90
46890;DHT22;32625;51.080;16.970;2023-11-19T12:43:49;5.80;99.90
46890;DHT22;32625;51.080;16.970;2023-11-19T12:46:22;5.80;99.90
46890;DHT22;32625;51.080;16.970;2023-11-19T12:48:50;5.80;99.90
46890;DHT22;32625;51.080;16.970;2023-11-19T12:51:18;5.90;99.90
46890;DHT22;32625;51.080;16.970;2023-11-19T12:54:03;5.90;99.90
46890;DHT22;32625;51.080;16.970;2023-11-19T12:56:31;5.90;99.90
46890;DHT22;32625;51.080;16.970;2023-11-19T12:59:10;5.90;99.90
46890;DHT22;32625;51.080;16.970;2023-11-19T13:01:38;5.90;99.90
46890;DHT22;32625;51.080;16.970;2023-11-19T13:04:17;6.00;99.90
46890;DHT22;32625;51.080;16.970;2023-11-19T13:06:46;6.10;99.90
46890;DHT22;32625;51.080;16.970;2023-11-19T13:09:31;6.00;99.90
46890;DHT22;32625;51.080;16.970;2023-11-19T13:11:58;6.10;99.90
46890;DHT22;32625;51.080;16.970;2023-11-19T13:14:36;6.10;99.90
46890;DHT22;32625;51.080;16.970;2023-11-19T13:17:12;6.20;99.90
46890;DHT22;32625;51.080;16.970;2023-11-19T13:19:39;6.30;99.90
46890;DHT22;32625;51.080;16.970;2023-11-19T13:22:06;6.30;99.90
46890;DHT22;32625;51.080;16.970;2023-11-19T13:24:33;6.30;99.90
46890;DHT22;32625;51.080;16.970;2023-11-19T13:27:00;6.30;99.90
46890;DHT22;32625;51.080;16.970;2023-11-19T13:29:27;6.40;99.90
46890;DHT22;32625;51.080;16.970;2023-11-19T13:31:57;6.40;99.90
46890;DHT22;32625;51.080;16.970;2023-11-19T13:34:25;6.60;99.90
46890;DHT22;32625;51.080;16.970;2023-11-19T13:36:52;6.60;99.90
46890;DHT22;32625;51.080;16.970;2023-11-19T13:39:19;6.60;99.90
46890;DHT22;32625;51.080;16.970;2023-11-19T13:41:50;6.60;99.90
46890;DHT22;32625;51.080;16.970;2023-11-19T13:44:16;6.60;99.90
46890;DHT22;32625;51.080;16.970;2023-11-19T13:46:45;6.60;99.90
46890;DHT22;32625;51.080;16.970;2023-11-19T13:49:13;6.60;99.90
46890;DHT22;32625;51.080;16.970;2023-11-19T13:51:42;6.70;99.90
46890;DHT22;32625;51.080;16.970;2023-11-19T13:54:09;6.70;99.90
46890;DHT22;32625;51.080;16.970;2023-11-19T13:56:36;6.80;99.90
46890;DHT22;32625;51.080;16.970;2023-11-19T13:59:03;6.80;99.90
46890;DHT22;32625;51.080;16.970;2023-11-19T14:01:30;6.80;99.90
46890;DHT22;32625;51.080;16.970;2023-11-19T14:03:57;6.80;99.90
46890;DHT22;32625;51.080;16.970;2023-11-19T14:06:24;6.90;99.90
46890;DHT22;32625;51.080;16.970;2023-11-19T14:08:51;7.00;99.90
46890;DHT22;32625;51.080;16.970;2023-11-19T14:11:18;6.90;99.90
46890;DHT22;32625;51.080;16.970;2023-11-19T14:13:45;6.90;99.90
46890;DHT22;32625;51.080;16.970;2023-11-19T14:16:13;6.90;99.90
46890;DHT22;32625;51.080;16.970;2023-11-19T14:18:41;7.00;99.90
46890;DHT22;32625;51.080;16.970;2023-11-19T14:21:08;7.00;99.90
46890;DHT22;32625;51.080;16.970;2023-11-19T14:23:35;7.00;99.90
46890;DHT22;32625;51.080;16.970;2023-11-19T14:26:02;7.00;99.90
46890;DHT22;32625;51.080;16.970;2023-11-19T14:28:29;7.00;99.90
46890;DHT22;32625;51.080;16.970;2023-11-19T14:30:58;7.00;99.90
46890;DHT22;32625;51.080;16.970;2023-11-19T14:33:24;7.00;99.90
46890;DHT22;32625;51.080;16.970;2023-11-19T14:35:51;7.00;99.90
46890;DHT22;32625;51.080;16.970;2023-11-19T14:38:18;7.00;99.90
46890;DHT22;32625;51.080;16.970;2023-11-19T14:40:45;7.00;99.90
46890;DHT22;32625;51.080;16.970;2023-11-19T14:43:12;6.90;99.90
46890;DHT22;32625;51.080;16.970;2023-11-19T14:45:40;7.00;99.90
46890;DHT22;32625;51.080;16.970;2023-11-19T14:48:16;6.90;99.90
46890;DHT22;32625;51.080;16.970;2023-11-19T14:50:44;6.90;99.90
46890;DHT22;32625;51.080;16.970;2023-11-19T14:53:11;6.90;99.90
46890;DHT22;32625;51.080;16.970;2023-11-19T14:55:38;6.90;99.90
46890;DHT22;32625;51.080;16.970;2023-11-19T14:58:05;6.80;99.90
46890;DHT22;32625;51.080;16.970;2023-11-19T15:00:37;6.90;99.90
46890;DHT22;32625;51.080;16.970;2023-11-19T15:03:04;6.80;99.90
46890;DHT22;32625;51.080;16.970;2023-11-19T15:05:33;6.80;99.90
46890;DHT22;32625;51.080;16.970;2023-11-19T15:08:01;6.80;99.90
46890;DHT22;32625;51.080;16.970;2023-11-19T15:10:30;6.80;99.90
46890;DHT22;32625;51.080;16.970;2023-11-19T15:12:57;6.80;99.90
46890;DHT22;32625;51.080;16.970;2023-11-19T15:15:24;6.80;99.90
46890;DHT22;32625;51.080;16.970;2023-11-19T15:17:54;6.80;99.90
46890;DHT22;32625;51.080;16.970;2023-11-19T15:20:21;6.80;99.90
46890;DHT22;32625;51.080;16.970;2023-11-19T15:22:48;6.80;99.90
46890;DHT22;32625;51.080;16.970;2023-11-19T15:25:15;6.80;99.90
46890;DHT22;32625;51.080;16.970;2023-11-19T15:27:42;6.90;99.90
46890;DHT22;32625;51.080;16.970;2023-11-19T15:30:09;6.80;99.90
46890;DHT22;32625;51.080;16.970;2023-11-19T15:32:37;6.80;99.90
46890;DHT22;32625;51.080;16.970;2023-11-19T15:35:06;6.90;99.90
46890;DHT22;32625;51.080;16.970;2023-11-19T15:37:40;6.80;99.90
46890;DHT22;32625;51.080;16.970;2023-11-19T15:40:10;6.90;99.90
46890;DHT22;32625;51.080;16.970;2023-11-19T15:42:39;6.90;99.90
46890;DHT22;32625;51.080;16.970;2023-11-19T15:45:07;6.90;99.90
46890;DHT22;32625;51.080;16.970;2023-11-19T15:47:34;6.90;99.90
46890;DHT22;32625;51.080;16.970;2023-11-19T15:50:05;6.90;99.90
46890;DHT22;32625;51.080;16.970;2023-11-19T15:52:32;6.90;99.90
46890;DHT22;32625;51.080;16.970;2023-11-19T15:54:59;6.90;99.90